Terminal Aerodrome Forecast
Issued by NWS

Current Version | Previous Version | Text Only | Print | Product List | Glossary On
Versions: 1 2 3 4 5 6 7 8 9 10 11 12 13 14 15 16 17 18
000 FTUS41 KBOX 011019 AAA TAFBAF TAF AMD KBAF 011019Z 0110/0206 01012KT P6SM OVC060 FM011300 01010KT P6SM OVC025 FM011700 01011KT P6SM -RA OVC015 FM012100 36012G21KT P6SM OVC015=

USA.gov is the U.S. government's official web portal to all federal, state and local government web resources and services.